Time;durP1;ratioP1;P1;durP2;ratioP2;P2;SDS_P1;SDS_P2;PMS_P1;PMS_P2;Temp;Humidity;BMP_temperature;BMP_pressure;BME280_temperature;BME280_humidity;BME280_pressure;Samples;Min_cycle;Max_cycle;Signal;HPM_P1;HPM_P2
2023/01/22 00:02:12;;;;;;;78.90;27.08;;;;;;;;;;4983419;28;20047;-81
2023/01/22 00:04:57;;;;;;;81.43;28.25;;;;;;;;;;4977745;28;20046;-82
2023/01/22 00:07:42;;;;;;;92.22;32.38;;;;;;;;;;4956090;28;20046;-82
2023/01/22 00:10:28;;;;;;;78.18;25.88;;;;;;;;;;4983231;28;20051;-83
2023/01/22 00:13:13;;;;;;;95.90;32.72;;;;;;;;;;4969093;28;20046;-82
2023/01/22 00:15:58;;;;;;;81.82;28.38;;;;;;;;;;4956242;28;20051;-82
2023/01/22 00:18:43;;;;;;;67.07;24.35;;;;;;;;;;4955589;28;20046;-83
2023/01/22 00:21:28;;;;;;;90.18;30.10;;;;;;;;;;4958186;28;20051;-82
2023/01/22 00:24:14;;;;;;;99.85;30.48;;;;;;;;;;4958466;28;20054;-82
2023/01/22 00:26:59;;;;;;;106.03;33.95;;;;;;;;;;4972249;28;20488;-83
2023/01/22 00:29:45;;;;;;;97.40;31.35;;;;;;;;;;4971908;28;20419;-82
2023/01/22 00:32:31;;;;;;;102.72;30.83;;;;;;;;;;4957972;28;20054;-82
2023/01/22 00:35:16;;;;;;;89.43;30.17;;;;;;;;;;4957523;28;20046;-82
2023/01/22 00:38:04;;;;;;;90.78;29.95;;;;;;;;;;4957754;28;20051;-83
2023/01/22 00:40:51;;;;;;;82.82;28.95;;;;;;;;;;4982065;28;20035;-83
2023/01/22 00:43:37;;;;;;;93.97;29.80;;;;;;;;;;4955425;28;20487;-82
2023/01/22 00:46:22;;;;;;;93.90;31.58;;;;;;;;;;4968683;28;20034;-83
2023/01/22 00:49:08;;;;;;;105.60;31.27;;;;;;;;;;4955843;28;20042;-83
2023/01/22 00:51:53;;;;;;;95.40;28.92;;;;;;;;;;4968885;28;20467;-82
2023/01/22 00:54:47;;;;;;;78.40;26.83;;;;;;;;;;4950340;28;20051;-82
2023/01/22 00:57:32;;;;;;;82.00;27.25;;;;;;;;;;4969151;28;20047;-83
2023/01/22 01:00:18;;;;;;;84.85;29.27;;;;;;;;;;4955089;28;20395;-83
2023/01/22 01:06:18;;;;;;;76.07;25.65;;;;;;;;;;4982354;28;20047;-84
2023/01/22 01:09:07;;;;;;;92.32;27.70;;;;;;;;;;4955226;28;20395;-83
2023/01/22 01:11:53;;;;;;;83.00;29.10;;;;;;;;;;4968629;28;20428;-85
2023/01/22 01:14:38;;;;;;;95.88;29.00;;;;;;;;;;4968349;28;20036;-83
2023/01/22 01:17:24;;;;;;;84.47;26.10;;;;;;;;;;4955417;28;20424;-82
2023/01/22 01:20:10;;;;;;;90.05;28.30;;;;;;;;;;4954842;28;20038;-82
2023/01/22 01:22:56;;;;;;;89.63;28.30;;;;;;;;;;4981609;28;20411;-82
2023/01/22 01:25:42;;;;;;;85.03;26.75;;;;;;;;;;4955034;28;20414;-82
2023/01/22 01:28:28;;;;;;;80.93;25.67;;;;;;;;;;4975695;28;20047;-81
2023/01/22 01:31:15;;;;;;;79.97;25.25;;;;;;;;;;4954798;28;20480;-83
2023/01/22 01:34:01;;;;;;;80.22;24.70;;;;;;;;;;4968226;28;20042;-81
2023/01/22 01:36:46;;;;;;;92.82;26.15;;;;;;;;;;4967859;28;20047;-81
2023/01/22 01:39:32;;;;;;;73.63;24.50;;;;;;;;;;4967960;28;20051;-81
2023/01/22 01:42:28;;;;;;;58.38;19.02;;;;;;;;;;4954299;28;20050;-80
2023/01/22 01:45:31;;;;;;;76.80;23.25;;;;;;;;;;4954721;28;20423;-82
2023/01/22 01:48:30;;;;;;;10.00;6.10;;;;;;;;;;4961446;28;20042;-81
2023/01/22 01:51:28;;;;;;;89.45;28.73;;;;;;;;;;4954228;28;20046;-81
2023/01/22 01:54:15;;;;;;;91.28;26.80;;;;;;;;;;4964402;28;20066;-80
2023/01/22 01:57:05;;;;;;;101.18;29.13;;;;;;;;;;4967576;28;20050;-81
2023/01/22 01:59:51;;;;;;;101.05;27.58;;;;;;;;;;4954054;28;20039;-83
2023/01/22 02:02:37;;;;;;;86.15;27.92;;;;;;;;;;4954219;28;20051;-83
2023/01/22 02:05:26;;;;;;;94.80;29.58;;;;;;;;;;4967788;28;20046;-82
2023/01/22 02:08:13;;;;;;;106.88;31.45;;;;;;;;;;4954553;28;20047;-82
2023/01/22 02:10:59;;;;;;;96.05;28.05;;;;;;;;;;4953990;28;20051;-81
2023/01/22 02:13:52;;;;;;;100.57;28.52;;;;;;;;;;4967692;28;20379;-81
2023/01/22 02:16:38;;;;;;;92.63;27.90;;;;;;;;;;4967437;28;20047;-82
2023/01/22 02:19:23;;;;;;;75.88;25.95;;;;;;;;;;4967278;28;20042;-81
2023/01/22 02:22:22;;;;;;;95.22;25.92;;;;;;;;;;4953591;28;20047;-82
2023/01/22 02:25:08;;;;;;;98.00;26.10;;;;;;;;;;4953721;28;20042;-84
2023/01/22 02:27:53;;;;;;;83.28;26.35;;;;;;;;;;4967107;28;20047;-82
2023/01/22 02:30:41;;;;;;;78.43;27.05;;;;;;;;;;4954236;28;20055;-82
2023/01/22 02:33:26;;;;;;;61.35;19.63;;;;;;;;;;4967031;28;20480;-82
2023/01/22 02:36:11;;;;;;;72.25;24.58;;;;;;;;;;4953488;28;20047;-81
2023/01/22 02:38:57;;;;;;;83.03;27.73;;;;;;;;;;4966839;28;20046;-82
2023/01/22 02:41:42;;;;;;;72.40;20.38;;;;;;;;;;4952858;28;20051;-83
2023/01/22 02:44:30;;;;;;;94.75;29.08;;;;;;;;;;4967017;28;20478;-83
2023/01/22 02:47:15;;;;;;;86.35;25.33;;;;;;;;;;4953524;28;20043;-82
2023/01/22 02:50:00;;;;;;;73.43;24.05;;;;;;;;;;4966826;28;20460;-81
2023/01/22 02:52:46;;;;;;;107.53;32.55;;;;;;;;;;4960366;28;20046;-81
2023/01/22 02:55:31;;;;;;;95.03;27.38;;;;;;;;;;4967035;28;20398;-81
2023/01/22 02:58:17;;;;;;;87.72;27.63;;;;;;;;;;4966971;28;20050;-80
2023/01/22 03:01:20;;;;;;;91.88;25.67;;;;;;;;;;4952872;28;20479;-80
2023/01/22 03:04:10;;;;;;;79.20;24.55;;;;;;;;;;4966839;28;20063;-80
2023/01/22 03:06:55;;;;;;;90.82;26.42;;;;;;;;;;4966559;28;20047;-80
2023/01/22 03:09:44;;;;;;;79.75;26.50;;;;;;;;;;4966973;28;20054;-79
2023/01/22 03:21:47;;;;;;;92.23;26.27;;;;;;;;;;4921356;29;20044;-80
2023/01/22 03:24:33;;;;;;;84.75;23.45;;;;;;;;;;4915302;29;20275;-80
2023/01/22 03:27:21;;;;;;;64.53;21.98;;;;;;;;;;4949396;28;20047;-80
2023/01/22 03:30:06;;;;;;;80.50;24.63;;;;;;;;;;4953402;28;20066;-80
2023/01/22 03:32:54;;;;;;;84.22;24.88;;;;;;;;;;4953481;28;20050;-80
2023/01/22 03:35:39;;;;;;;93.00;25.13;;;;;;;;;;4974120;28;20043;-79
2023/01/22 03:38:36;;;;;;;83.70;24.95;;;;;;;;;;4966441;28;20415;-79
2023/01/22 03:41:22;;;;;;;79.07;24.58;;;;;;;;;;4966079;28;20487;-80
2023/01/22 03:44:13;;;;;;;88.35;27.00;;;;;;;;;;4966394;28;20055;-80
2023/01/22 03:46:59;;;;;;;87.50;26.65;;;;;;;;;;4980217;28;20047;-80
2023/01/22 03:49:44;;;;;;;96.40;26.35;;;;;;;;;;4966212;28;20427;-80
2023/01/22 03:52:29;;;;;;;78.10;25.35;;;;;;;;;;4955118;28;20047;-80
2023/01/22 03:55:15;;;;;;;89.93;27.10;;;;;;;;;;4963453;28;20099;-80
2023/01/22 03:58:02;;;;;;;83.50;25.83;;;;;;;;;;4969649;28;20051;-80
2023/01/22 04:00:47;;;;;;;76.72;25.23;;;;;;;;;;4969912;28;20047;-80
2023/01/22 04:03:34;;;;;;;87.05;27.15;;;;;;;;;;4969675;28;20387;-81
2023/01/22 04:06:21;;;;;;;71.97;23.58;;;;;;;;;;4970280;28;20051;-80
2023/01/22 04:09:06;;;;;;;84.65;25.63;;;;;;;;;;4956216;28;20054;-79
2023/01/22 04:11:56;;;;;;;80.47;25.17;;;;;;;;;;4970229;28;20051;-80
2023/01/22 04:14:41;;;;;;;86.55;29.83;;;;;;;;;;4969507;28;20043;-80
2023/01/22 04:17:27;;;;;;;77.20;24.20;;;;;;;;;;4977425;28;20042;-80
2023/01/22 04:20:30;;;;;;;77.60;24.30;;;;;;;;;;4969533;28;20043;-79
2023/01/22 04:23:22;;;;;;;84.03;25.13;;;;;;;;;;4977528;28;20055;-80
2023/01/22 04:26:09;;;;;;;85.50;24.05;;;;;;;;;;4982952;28;20411;-80
2023/01/22 04:28:54;;;;;;;64.93;21.95;;;;;;;;;;4977390;28;20043;-81
2023/01/22 04:31:41;;;;;;;67.63;21.85;;;;;;;;;;4969236;28;20496;-80
2023/01/22 04:34:40;;;;;;;78.45;22.80;;;;;;;;;;4969273;28;20046;-80
2023/01/22 04:37:39;;;;;;;82.25;25.17;;;;;;;;;;4982829;28;20471;-80
2023/01/22 04:40:24;;;;;;;62.60;23.35;;;;;;;;;;4968797;28;20407;-81
2023/01/22 04:43:10;;;;;;;85.00;26.25;;;;;;;;;;4982686;28;20038;-80
2023/01/22 04:45:56;;;;;;;88.10;25.65;;;;;;;;;;4968852;28;20058;-80
2023/01/22 04:48:47;;;;;;;104.07;26.98;;;;;;;;;;4969508;28;20043;-80
2023/01/22 04:51:33;;;;;;;99.97;25.70;;;;;;;;;;4968874;28;20491;-80
2023/01/22 04:54:18;;;;;;;96.47;25.40;;;;;;;;;;4978971;28;20050;-81
2023/01/22 04:57:04;;;;;;;104.85;26.38;;;;;;;;;;4969093;28;20046;-80
2023/01/22 04:59:49;;;;;;;103.43;30.35;;;;;;;;;;4968502;28;20047;-80
2023/01/22 05:02:36;;;;;;;85.60;24.10;;;;;;;;;;4968626;28;20047;-80
2023/01/22 05:05:21;;;;;;;97.93;23.95;;;;;;;;;;4954475;28;20415;-80
2023/01/22 05:08:06;;;;;;;103.15;28.17;;;;;;;;;;4968943;28;20051;-80
2023/01/22 05:10:54;;;;;;;69.90;23.02;;;;;;;;;;4982085;28;20050;-80
2023/01/22 05:13:44;;;;;;;76.32;25.13;;;;;;;;;;4955444;28;20054;-79
2023/01/22 05:16:30;;;;;;;61.35;19.40;;;;;;;;;;4968573;28;20046;-80
2023/01/22 05:19:15;;;;;;;60.78;19.00;;;;;;;;;;4976422;28;20054;-79
2023/01/22 05:22:01;;;;;;;77.15;23.95;;;;;;;;;;4954870;28;20043;-80
2023/01/22 05:24:47;;;;;;;59.53;22.38;;;;;;;;;;4968910;28;20472;-80
2023/01/22 05:27:33;;;;;;;46.47;18.60;;;;;;;;;;4954880;28;20047;-80
2023/01/22 05:30:27;;;;;;;36.35;16.45;;;;;;;;;;4968119;28;20055;-81
2023/01/22 05:33:32;;;;;;;36.13;16.20;;;;;;;;;;4974046;28;20047;-81
2023/01/22 05:36:18;;;;;;;33.28;13.55;;;;;;;;;;4968560;28;20050;-81
2023/01/22 05:39:04;;;;;;;25.65;11.48;;;;;;;;;;4968164;28;20423;-80
2023/01/22 05:41:51;;;;;;;24.20;11.98;;;;;;;;;;4967524;28;20476;-81
2023/01/22 05:44:36;;;;;;;23.77;10.02;;;;;;;;;;4968121;28;20042;-81
2023/01/22 05:47:21;;;;;;;23.60;10.45;;;;;;;;;;4967563;28;20054;-81
2023/01/22 05:50:21;;;;;;;31.27;14.90;;;;;;;;;;4968067;28;20050;-81
2023/01/22 05:53:13;;;;;;;38.22;20.10;;;;;;;;;;4954538;28;20046;-81
2023/01/22 05:56:03;;;;;;;27.13;14.15;;;;;;;;;;4967498;28;20059;-80
2023/01/22 05:58:52;;;;;;;17.00;9.52;;;;;;;;;;4954838;28;20047;-81
2023/01/22 06:01:38;;;;;;;20.50;9.70;;;;;;;;;;4967314;28;20043;-81
2023/01/22 06:04:23;;;;;;;22.70;10.30;;;;;;;;;;4967523;28;20058;-80
2023/01/22 06:07:08;;;;;;;18.83;9.18;;;;;;;;;;4967562;28;20042;-81
2023/01/22 06:09:54;;;;;;;17.38;9.27;;;;;;;;;;4967515;28;20050;-80
2023/01/22 06:12:39;;;;;;;18.30;9.20;;;;;;;;;;4967682;28;20050;-80
2023/01/22 06:15:25;;;;;;;13.50;7.60;;;;;;;;;;4953517;28;20042;-81
2023/01/22 06:18:21;;;;;;;14.52;7.93;;;;;;;;;;4967674;28;20042;-80
2023/01/22 06:21:07;;;;;;;14.93;8.18;;;;;;;;;;4967141;28;20043;-80
2023/01/22 06:23:52;;;;;;;15.63;7.63;;;;;;;;;;4966538;28;20427;-81
2023/01/22 06:26:38;;;;;;;17.65;8.23;;;;;;;;;;4967261;28;20047;-81
2023/01/22 06:29:26;;;;;;;21.23;9.40;;;;;;;;;;4966825;28;20487;-80
2023/01/22 06:32:12;;;;;;;17.10;8.35;;;;;;;;;;4980787;28;20050;-82
2023/01/22 06:34:58;;;;;;;16.70;9.82;;;;;;;;;;4980075;28;20415;-81
2023/01/22 06:37:44;;;;;;;20.42;10.98;;;;;;;;;;4966802;28;20043;-81
2023/01/22 06:40:29;;;;;;;29.35;15.18;;;;;;;;;;4974702;28;20047;-81
2023/01/22 06:43:15;;;;;;;39.95;16.95;;;;;;;;;;4964680;28;20058;-80
2023/01/22 06:46:02;;;;;;;41.63;18.52;;;;;;;;;;4949914;28;20039;-81
2023/01/22 06:49:09;;;;;;;36.70;16.52;;;;;;;;;;4958615;28;20047;-81
2023/01/22 06:51:54;;;;;;;23.58;12.40;;;;;;;;;;4964737;28;20050;-80
2023/01/22 06:54:40;;;;;;;31.60;13.10;;;;;;;;;;4962060;28;20047;-80
2023/01/22 06:57:24;;;;;;;26.77;13.43;;;;;;;;;;4966290;28;20050;-81
2023/01/22 07:00:10;;;;;;;36.70;16.88;;;;;;;;;;4967346;28;20476;-80
2023/01/22 07:02:56;;;;;;;45.58;21.55;;;;;;;;;;4974737;28;20046;-81
2023/01/22 07:05:41;;;;;;;45.95;21.83;;;;;;;;;;4974776;28;20043;-80
2023/01/22 07:08:28;;;;;;;78.32;39.92;;;;;;;;;;4975002;28;20058;-80
2023/01/22 07:11:15;;;;;;;36.17;20.23;;;;;;;;;;4974623;28;20475;-81
2023/01/22 07:14:00;;;;;;;33.95;22.40;;;;;;;;;;4967396;28;20054;-81
2023/01/22 07:16:46;;;;;;;57.03;26.45;;;;;;;;;;4975042;28;20058;-81
2023/01/22 07:19:32;;;;;;;40.90;21.00;;;;;;;;;;4974512;28;20055;-81
2023/01/22 07:22:17;;;;;;;29.42;14.85;;;;;;;;;;4970686;28;20039;-81
2023/01/22 07:25:03;;;;;;;37.53;19.58;;;;;;;;;;4958615;28;20055;-80
2023/01/22 07:27:48;;;;;;;26.67;13.75;;;;;;;;;;4977634;28;20039;-81
2023/01/22 07:30:33;;;;;;;31.85;16.38;;;;;;;;;;4976412;28;20042;-80
2023/01/22 07:33:18;;;;;;;25.25;12.07;;;;;;;;;;4962893;28;20495;-80
2023/01/22 07:36:04;;;;;;;21.83;10.45;;;;;;;;;;4967513;28;20054;-80
2023/01/22 07:38:49;;;;;;;20.02;10.98;;;;;;;;;;4977493;28;20043;-81
2023/01/22 07:41:34;;;;;;;26.83;13.10;;;;;;;;;;4970662;28;20043;-84
2023/01/22 07:44:24;;;;;;;27.38;14.35;;;;;;;;;;4962164;28;20460;-79
2023/01/22 07:47:09;;;;;;;30.70;15.60;;;;;;;;;;4969863;28;20050;-81
2023/01/22 07:49:55;;;;;;;24.58;13.25;;;;;;;;;;4969707;28;20480;-81
2023/01/22 07:52:39;;;;;;;35.80;17.52;;;;;;;;;;4978133;28;20480;-80
2023/01/22 07:55:25;;;;;;;36.00;17.23;;;;;;;;;;4978060;28;20047;-82
2023/01/22 07:58:11;;;;;;;134.27;38.88;;;;;;;;;;4978118;28;20399;-82
2023/01/22 08:00:56;;;;;;;41.50;17.77;;;;;;;;;;4977767;28;20411;-82
2023/01/22 08:03:42;;;;;;;28.27;13.15;;;;;;;;;;4970460;28;20051;-80
2023/01/22 08:06:27;;;;;;;42.28;20.95;;;;;;;;;;4969334;28;20051;-80
2023/01/22 08:09:29;;;;;;;42.97;18.73;;;;;;;;;;4976439;28;20038;-83
2023/01/22 08:12:17;;;;;;;;;;;;;;;;;;4944869;29;20043;-81
2023/01/22 08:15:03;;;;;;;8.63;5.53;;;;;;;;;;4974160;28;19917;-79
2023/01/22 08:17:50;;;;;;;27.67;13.73;;;;;;;;;;4977732;28;20487;-81
2023/01/22 08:20:35;;;;;;;23.70;11.13;;;;;;;;;;4969365;28;20055;-81
2023/01/22 08:23:20;;;;;;;17.15;8.52;;;;;;;;;;4974594;28;20046;-81
2023/01/22 08:26:05;;;;;;;28.35;13.68;;;;;;;;;;4962357;28;20038;-79
2023/01/22 08:28:51;;;;;;;34.75;16.58;;;;;;;;;;4964843;28;20051;-81
2023/01/22 08:31:36;;;;;;;40.83;17.10;;;;;;;;;;4963184;28;20055;-81
2023/01/22 08:34:21;;;;;;;39.15;17.25;;;;;;;;;;4976597;28;20047;-81
2023/01/22 08:37:06;;;;;;;38.85;14.75;;;;;;;;;;4975747;28;20047;-81
2023/01/22 08:39:51;;;;;;;43.22;18.02;;;;;;;;;;4976538;28;20050;-79
2023/01/22 08:42:37;;;;;;;47.13;19.88;;;;;;;;;;4976706;28;20047;-81
2023/01/22 08:45:23;;;;;;;46.78;21.15;;;;;;;;;;4968908;28;20047;-80
2023/01/22 08:48:08;;;;;;;43.28;18.05;;;;;;;;;;4988643;28;20046;-80
2023/01/22 08:50:54;;;;;;;42.22;16.65;;;;;;;;;;4984032;28;20050;-81
2023/01/22 08:53:40;;;;;;;47.10;19.48;;;;;;;;;;4950163;29;20492;-81
2023/01/22 08:56:25;;;;;;;47.30;19.45;;;;;;;;;;4975443;28;20043;-80
2023/01/22 08:59:10;;;;;;;52.15;22.23;;;;;;;;;;4974280;28;20043;-80
2023/01/22 09:01:58;;;;;;;61.10;27.73;;;;;;;;;;4968306;28;20043;-83
2023/01/22 09:04:42;;;;;;;36.08;15.32;;;;;;;;;;4968107;28;20495;-81
2023/01/22 09:07:27;;;;;;;40.35;16.77;;;;;;;;;;4968578;28;20483;-82
2023/01/22 09:10:12;;;;;;;47.47;22.85;;;;;;;;;;4962045;28;20063;-81
2023/01/22 09:13:00;;;;;;;44.08;19.13;;;;;;;;;;4976700;28;20039;-82
2023/01/22 09:15:46;;;;;;;45.72;21.88;;;;;;;;;;4974031;28;20050;-82
2023/01/22 09:18:31;;;;;;;48.60;23.95;;;;;;;;;;4975082;28;20483;-80
2023/01/22 09:21:17;;;;;;;35.50;17.08;;;;;;;;;;4975016;28;20046;-80
2023/01/22 09:24:03;;;;;;;46.80;20.67;;;;;;;;;;4981681;28;20051;-80
2023/01/22 09:26:48;;;;;;;40.97;18.42;;;;;;;;;;4976594;28;20405;-82
2023/01/22 09:29:33;;;;;;;40.22;16.60;;;;;;;;;;4968810;28;20054;-80
2023/01/22 09:32:18;;;;;;;;;;;;;;;;;;4976669;28;20043;-80
2023/01/22 09:35:03;;;;;;;39.95;16.00;;;;;;;;;;4982127;28;19918;-82
2023/01/22 09:37:48;;;;;;;50.97;22.92;;;;;;;;;;4961358;28;20043;-80
2023/01/22 09:40:56;;;;;;;74.65;32.53;;;;;;;;;;4982043;28;20051;-81
2023/01/22 09:43:51;;;;;;;45.10;17.85;;;;;;;;;;4976315;28;20047;-82
2023/01/22 09:46:42;;;;;;;57.20;23.90;;;;;;;;;;4975772;28;20055;-79
2023/01/22 09:49:33;;;;;;;55.25;23.35;;;;;;;;;;4967380;28;20043;-83
2023/01/22 09:52:20;;;;;;;53.47;24.42;;;;;;;;;;4981223;28;20059;-80
2023/01/22 09:55:13;;;;;;;58.42;25.95;;;;;;;;;;4961094;28;20055;-79
2023/01/22 09:58:01;;;;;;;49.95;23.20;;;;;;;;;;4975882;28;20059;-80
2023/01/22 10:00:52;;;;;;;56.25;24.58;;;;;;;;;;4975270;28;20392;-80
2023/01/22 10:03:54;;;;;;;42.25;21.98;;;;;;;;;;4958842;28;20055;-80
2023/01/22 10:06:42;;;;;;;31.17;12.82;;;;;;;;;;4965911;28;20042;-80
2023/01/22 10:09:31;;;;;;;28.70;13.18;;;;;;;;;;4971460;28;20043;-81
2023/01/22 10:12:16;;;;;;;63.60;24.80;;;;;;;;;;4968970;28;20054;-81
2023/01/22 10:15:02;;;;;;;34.03;14.65;;;;;;;;;;4963611;28;20046;-86
2023/01/22 10:17:49;;;;;;;49.28;23.77;;;;;;;;;;4971899;28;20043;-82
2023/01/22 10:20:34;;;;;;;62.70;24.85;;;;;;;;;;4960759;28;20039;-83
2023/01/22 10:23:23;;;;;;;22.13;10.32;;;;;;;;;;4955128;29;20392;-81
2023/01/22 10:26:27;;;;;;;47.33;20.33;;;;;;;;;;4955219;29;20051;-79
2023/01/22 10:29:28;;;;;;;138.82;58.80;;;;;;;;;;4961558;28;20415;-79
2023/01/22 10:32:26;;;;;;;47.22;18.42;;;;;;;;;;4955858;29;20051;-80
2023/01/22 10:35:18;;;;;;;42.47;17.02;;;;;;;;;;4955285;29;20039;-80
2023/01/22 10:38:03;;;;;;;54.38;20.85;;;;;;;;;;4975083;28;20059;-79
2023/01/22 10:40:55;;;;;;;19.13;7.10;;;;;;;;;;4955627;29;20059;-80
2023/01/22 10:43:42;;;;;;;29.20;12.85;;;;;;;;;;4941251;29;20044;-80
2023/01/22 10:46:27;;;;;;;59.65;23.20;;;;;;;;;;4960939;28;20047;-78
2023/01/22 10:49:21;;;;;;;52.30;23.45;;;;;;;;;;4960781;28;20047;-80
2023/01/22 10:52:20;;;;;;;70.85;26.55;;;;;;;;;;4961078;28;20055;-82
2023/01/22 10:55:25;;;;;;;56.55;21.52;;;;;;;;;;4968820;28;20059;-82
2023/01/22 10:58:16;;;;;;;49.75;20.83;;;;;;;;;;4963347;28;20050;-81
2023/01/22 11:01:05;;;;;;;58.28;21.80;;;;;;;;;;4961003;28;20047;-82
2023/01/22 11:03:51;;;;;;;44.53;19.25;;;;;;;;;;4940667;29;20047;-80
2023/01/22 11:06:41;;;;;;;64.07;25.08;;;;;;;;;;4955705;29;20051;-82
2023/01/22 11:09:40;;;;;;;76.57;26.73;;;;;;;;;;4950727;29;20051;-80
2023/01/22 11:12:35;;;;;;;61.28;25.60;;;;;;;;;;4955321;29;20047;-82
2023/01/22 11:15:34;;;;;;;52.30;22.13;;;;;;;;;;4952353;28;20059;-81
2023/01/22 11:19:08;;;;;;;45.25;18.95;;;;;;;;;;4979606;28;20039;-81
2023/01/22 11:21:55;;;;;;;47.60;20.77;;;;;;;;;;4895819;29;20065;-82
2023/01/22 11:24:46;;;;;;;48.03;19.23;;;;;;;;;;4905205;29;20044;-83
2023/01/22 11:28:03;;;;;;;15.73;5.65;;;;;;;;;;4957438;28;20408;-85
2023/01/22 11:31:22;;;;;;;44.97;18.30;;;;;;;;;;4976583;28;20047;-81
2023/01/22 11:34:25;;;;;;;43.42;16.58;;;;;;;;;;4962904;28;20043;-82
2023/01/22 11:37:10;;;;;;;53.10;22.13;;;;;;;;;;4963546;28;20384;-82
2023/01/22 11:40:20;;;;;;;56.40;20.08;;;;;;;;;;4947057;28;20051;-83
2023/01/22 11:43:17;;;;;;;41.08;17.33;;;;;;;;;;4959319;28;20043;-83
2023/01/22 11:46:27;;;;;;;43.40;19.85;;;;;;;;;;4952051;28;20051;-82
2023/01/22 11:49:33;;;;;;;47.13;21.77;;;;;;;;;;4971195;28;20043;-83
2023/01/22 11:52:54;;;;;;;47.92;22.10;;;;;;;;;;4958542;28;20046;-82
2023/01/22 11:56:04;;;;;;;46.10;18.10;;;;;;;;;;4979175;28;20046;-81
2023/01/22 11:58:57;;;;;;;21.52;10.88;;;;;;;;;;4979528;28;20392;-83
2023/01/22 12:02:16;;;;;;;14.82;5.57;;;;;;;;;;4970433;28;20042;-81
2023/01/22 12:05:08;;;;;;;44.75;16.40;;;;;;;;;;4964841;28;20043;-82
2023/01/22 12:08:18;;;;;;;46.05;16.33;;;;;;;;;;4968431;28;20054;-83
2023/01/22 12:11:51;;;;;;;41.45;18.38;;;;;;;;;;4973499;28;20479;-83
2023/01/22 12:14:57;;;;;;;38.97;14.88;;;;;;;;;;4927136;28;20055;-82
2023/01/22 12:18:16;;;;;;;52.60;22.35;;;;;;;;;;4977055;28;20054;-82
2023/01/22 12:21:42;;;;;;;51.85;19.15;;;;;;;;;;4968678;28;20054;-84
2023/01/22 12:24:50;;;;;;;39.72;19.15;;;;;;;;;;4969701;28;20063;-85
2023/01/22 12:27:43;;;;;;;46.63;19.70;;;;;;;;;;4969166;28;20047;-81
2023/01/22 12:30:34;;;;;;;21.05;10.18;;;;;;;;;;4982366;28;20058;-83
2023/01/22 12:33:24;;;;;;;27.63;13.68;;;;;;;;;;4969047;28;20046;-82
2023/01/22 12:36:21;;;;;;;17.58;8.20;;;;;;;;;;4982808;28;20046;-80
2023/01/22 12:39:22;;;;;;;19.85;9.75;;;;;;;;;;4959743;28;20058;-82
2023/01/22 12:42:25;;;;;;;48.75;19.13;;;;;;;;;;4970048;28;20035;-81
2023/01/22 12:45:33;;;;;;;30.52;11.35;;;;;;;;;;4976872;28;20059;-81
2023/01/22 12:48:41;;;;;;;32.45;16.15;;;;;;;;;;4977341;28;20392;-82
2023/01/22 12:51:34;;;;;;;21.10;9.45;;;;;;;;;;4976894;28;20034;-81
2023/01/22 12:54:35;;;;;;;39.95;16.02;;;;;;;;;;4960261;28;20047;-81
2023/01/22 12:57:19;;;;;;;57.15;22.77;;;;;;;;;;4973775;28;20046;-81
2023/01/22 13:00:30;;;;;;;52.33;23.70;;;;;;;;;;4976505;28;20058;-83
2023/01/22 13:03:27;;;;;;;33.38;12.65;;;;;;;;;;4958396;28;20039;-82
2023/01/22 13:06:28;;;;;;;23.05;10.40;;;;;;;;;;4967616;28;20065;-81
2023/01/22 13:09:39;;;;;;;42.90;19.48;;;;;;;;;;4953901;28;20046;-84
2023/01/22 13:12:27;;;;;;;25.25;9.80;;;;;;;;;;4953692;28;20043;-84
2023/01/22 13:15:27;;;;;;;25.23;10.93;;;;;;;;;;4968658;28;20055;-84
2023/01/22 13:18:19;;;;;;;25.75;12.95;;;;;;;;;;4968539;28;20047;-84
2023/01/22 13:21:08;;;;;;;38.08;16.15;;;;;;;;;;4955002;28;20046;-83
2023/01/22 13:23:59;;;;;;;44.55;19.80;;;;;;;;;;4968206;28;20042;-82
2023/01/22 13:26:53;;;;;;;47.90;21.15;;;;;;;;;;4967841;28;20054;-83
2023/01/22 13:29:38;;;;;;;31.88;13.05;;;;;;;;;;4954616;28;20484;-84
2023/01/22 13:32:28;;;;;;;30.85;14.23;;;;;;;;;;4954598;28;20396;-83
2023/01/22 13:35:15;;;;;;;32.08;15.90;;;;;;;;;;4954769;28;20043;-83
2023/01/22 13:38:00;;;;;;;39.17;17.05;;;;;;;;;;4968278;28;20050;-83
2023/01/22 13:40:54;;;;;;;35.80;15.65;;;;;;;;;;4954477;28;20047;-85
2023/01/22 13:43:42;;;;;;;18.52;10.43;;;;;;;;;;4968720;28;20051;-82
2023/01/22 13:46:36;;;;;;;12.40;7.95;;;;;;;;;;4968447;28;20051;-81
2023/01/22 13:49:24;;;;;;;42.17;19.30;;;;;;;;;;4961547;28;20042;-82
2023/01/22 13:52:15;;;;;;;32.10;15.55;;;;;;;;;;4968169;28;20030;-80
2023/01/22 13:55:04;;;;;;;48.20;21.77;;;;;;;;;;4961706;28;20495;-80
2023/01/22 13:57:52;;;;;;;39.33;17.67;;;;;;;;;;4967896;28;20050;-81
2023/01/22 14:00:51;;;;;;;38.50;17.23;;;;;;;;;;4955874;28;20051;-81
2023/01/22 14:03:42;;;;;;;38.30;18.17;;;;;;;;;;4962074;28;20384;-83
2023/01/22 14:06:28;;;;;;;29.75;15.15;;;;;;;;;;4954504;28;20051;-83
2023/01/22 14:09:34;;;;;;;15.88;9.00;;;;;;;;;;4954163;28;20047;-82
2023/01/22 14:12:22;;;;;;;37.47;17.10;;;;;;;;;;4955236;28;20059;-81
2023/01/22 14:15:18;;;;;;;39.97;18.35;;;;;;;;;;4975215;28;20050;-80
2023/01/22 14:18:15;;;;;;;39.42;20.33;;;;;;;;;;4955267;28;20395;-81
2023/01/22 14:21:06;;;;;;;52.00;24.27;;;;;;;;;;4967894;28;20047;-83
2023/01/22 14:23:53;;;;;;;51.33;22.50;;;;;;;;;;4961327;28;20043;-82
2023/01/22 14:26:39;;;;;;;51.75;24.73;;;;;;;;;;4953874;28;20051;-82
2023/01/22 14:29:25;;;;;;;62.88;28.65;;;;;;;;;;4966932;28;20050;-83
2023/01/22 14:32:11;;;;;;;65.45;27.80;;;;;;;;;;4967166;28;20491;-82
2023/01/22 14:34:58;;;;;;;58.90;27.90;;;;;;;;;;4966978;28;20050;-81
2023/01/22 14:37:43;;;;;;;61.78;26.30;;;;;;;;;;4953354;28;20051;-82
2023/01/22 14:40:31;;;;;;;48.08;23.08;;;;;;;;;;4953698;28;20050;-82
2023/01/22 14:43:22;;;;;;;48.97;23.55;;;;;;;;;;4973839;28;20054;-80
2023/01/22 14:46:07;;;;;;;76.97;35.95;;;;;;;;;;4975423;28;20054;-82
2023/01/22 14:48:53;;;;;;;50.92;24.50;;;;;;;;;;4966985;28;20043;-80
2023/01/22 14:51:40;;;;;;;57.45;26.92;;;;;;;;;;4965230;28;20051;-81
2023/01/22 14:54:25;;;;;;;45.30;21.65;;;;;;;;;;4962225;28;20042;-81
2023/01/22 14:57:11;;;;;;;43.70;22.15;;;;;;;;;;4955764;28;20047;-82
2023/01/22 14:59:56;;;;;;;63.38;26.08;;;;;;;;;;4973329;28;20051;-80
2023/01/22 15:02:42;;;;;;;57.20;27.45;;;;;;;;;;4971742;28;20047;-81
2023/01/22 15:05:28;;;;;;;54.03;28.65;;;;;;;;;;4954568;28;20043;-81
2023/01/22 15:08:14;;;;;;;74.07;32.35;;;;;;;;;;4958534;28;20047;-82
2023/01/22 15:11:01;;;;;;;68.00;30.00;;;;;;;;;;4977524;28;20464;-81
2023/01/22 15:13:46;;;;;;;66.15;31.60;;;;;;;;;;4967437;28;20051;-82
2023/01/22 15:16:33;;;;;;;61.80;28.85;;;;;;;;;;4960277;28;20051;-82
2023/01/22 15:19:23;;;;;;;63.83;28.73;;;;;;;;;;4966751;28;20043;-83
2023/01/22 15:22:10;;;;;;;61.47;30.40;;;;;;;;;;4974509;28;20043;-82
2023/01/22 15:25:01;;;;;;;118.40;47.17;;;;;;;;;;4966868;28;20050;-83
2023/01/22 15:27:47;;;;;;;95.75;39.70;;;;;;;;;;4974942;28;20059;-81
2023/01/22 15:30:33;;;;;;;89.85;39.10;;;;;;;;;;4974320;28;20047;-81
2023/01/22 15:33:19;;;;;;;77.82;33.75;;;;;;;;;;4966138;28;20054;-83
2023/01/22 15:36:05;;;;;;;72.55;31.83;;;;;;;;;;4958477;28;20043;-82
2023/01/22 15:38:50;;;;;;;70.38;31.77;;;;;;;;;;4961525;28;20050;-82
2023/01/22 15:41:37;;;;;;;70.70;30.52;;;;;;;;;;4964531;28;20051;-82
2023/01/22 15:44:22;;;;;;;68.18;31.23;;;;;;;;;;4966405;28;20062;-81
2023/01/22 15:47:09;;;;;;;73.38;34.05;;;;;;;;;;4953953;28;20038;-81
2023/01/22 15:49:55;;;;;;;76.93;35.70;;;;;;;;;;4956896;28;20407;-82
2023/01/22 15:52:40;;;;;;;56.47;27.92;;;;;;;;;;4969537;28;20050;-83
2023/01/22 15:55:26;;;;;;;73.68;32.42;;;;;;;;;;4982141;28;20403;-81
2023/01/22 15:58:10;;;;;;;96.72;47.22;;;;;;;;;;4977224;28;20054;-81
2023/01/22 16:00:56;;;;;;;106.13;47.05;;;;;;;;;;4968100;28;20077;-82
2023/01/22 16:03:42;;;;;;;118.55;54.30;;;;;;;;;;4963266;28;20046;-83
2023/01/22 16:06:31;;;;;;;137.48;65.00;;;;;;;;;;4961315;28;20054;-82
2023/01/22 16:09:23;;;;;;;89.93;42.45;;;;;;;;;;4957784;28;20051;-83
2023/01/22 16:12:09;;;;;;;88.68;41.67;;;;;;;;;;4969486;28;20046;-81
2023/01/22 16:14:54;;;;;;;101.35;44.90;;;;;;;;;;4962977;28;20078;-81
2023/01/22 16:17:41;;;;;;;88.03;42.17;;;;;;;;;;4969123;28;20054;-81
2023/01/22 16:20:27;;;;;;;113.95;52.28;;;;;;;;;;4969278;28;20480;-81
2023/01/22 16:23:12;;;;;;;118.78;53.90;;;;;;;;;;4982997;28;20040;-83
2023/01/22 16:25:58;;;;;;;123.13;59.25;;;;;;;;;;4976254;28;20039;-84
2023/01/22 16:28:47;;;;;;;123.80;54.05;;;;;;;;;;4968237;28;20054;-82
2023/01/22 16:31:34;;;;;;;126.75;53.30;;;;;;;;;;4962907;28;20050;-83
2023/01/22 16:34:20;;;;;;;118.47;50.15;;;;;;;;;;4969056;28;20046;-84
2023/01/22 16:37:05;;;;;;;100.10;41.60;;;;;;;;;;4969263;28;20047;-82
2023/01/22 16:39:56;;;;;;;86.13;37.97;;;;;;;;;;4970315;28;20046;-83
2023/01/22 16:42:58;;;;;;;93.70;38.53;;;;;;;;;;4956811;28;20043;-84